sensor_id;sensor_type;location;lat;lon;timestamp;temperature;humidity
11423;DHT22;5768;51.476;7.210;2023-08-20T00:01:21;21.70;23.50
11423;DHT22;5768;51.476;7.210;2023-08-20T00:06:25;21.80;22.90
11423;DHT22;5768;51.476;7.210;2023-08-20T00:11:28;21.80;22.80
11423;DHT22;5768;51.476;7.210;2023-08-20T00:16:33;21.70;23.00
11423;DHT22;5768;51.476;7.210;2023-08-20T00:21:40;21.80;23.00
11423;DHT22;5768;51.476;7.210;2023-08-20T00:26:44;21.80;23.30
11423;DHT22;5768;51.476;7.210;2023-08-20T00:31:48;21.70;23.90
11423;DHT22;5768;51.476;7.210;2023-08-20T00:36:51;21.60;24.30
11423;DHT22;5768;51.476;7.210;2023-08-20T00:41:53;21.60;24.10
11423;DHT22;5768;51.476;7.210;2023-08-20T00:46:57;21.50;25.10
11423;DHT22;5768;51.476;7.210;2023-08-20T00:52:02;21.50;24.20
11423;DHT22;5768;51.476;7.210;2023-08-20T00:57:06;21.40;24.30
11423;DHT22;5768;51.476;7.210;2023-08-20T01:02:11;20.90;24.20
11423;DHT22;5768;51.476;7.210;2023-08-20T01:07:20;21.40;24.50
11423;DHT22;5768;51.476;7.210;2023-08-20T01:12:28;21.40;24.20
11423;DHT22;5768;51.476;7.210;2023-08-20T01:17:32;21.40;24.80
11423;DHT22;5768;51.476;7.210;2023-08-20T01:28:24;21.30;25.30
11423;DHT22;5768;51.476;7.210;2023-08-20T01:33:28;21.30;25.30
11423;DHT22;5768;51.476;7.210;2023-08-20T01:38:30;21.30;25.40
11423;DHT22;5768;51.476;7.210;2023-08-20T01:43:34;21.30;25.70
11423;DHT22;5768;51.476;7.210;2023-08-20T01:48:36;21.20;25.60
11423;DHT22;5768;51.476;7.210;2023-08-20T01:53:39;21.20;25.70
11423;DHT22;5768;51.476;7.210;2023-08-20T01:58:42;21.20;25.80
11423;DHT22;5768;51.476;7.210;2023-08-20T02:03:45;21.10;26.00
11423;DHT22;5768;51.476;7.210;2023-08-20T02:08:47;21.10;26.10
11423;DHT22;5768;51.476;7.210;2023-08-20T02:13:51;21.10;26.10
11423;DHT22;5768;51.476;7.210;2023-08-20T02:18:53;21.00;26.60
11423;DHT22;5768;51.476;7.210;2023-08-20T02:23:55;21.10;26.70
11423;DHT22;5768;51.476;7.210;2023-08-20T02:28:59;21.00;26.90
11423;DHT22;5768;51.476;7.210;2023-08-20T02:34:01;21.10;26.80
11423;DHT22;5768;51.476;7.210;2023-08-20T02:39:04;21.20;26.40
11423;DHT22;5768;51.476;7.210;2023-08-20T02:44:09;21.80;26.30
11423;DHT22;5768;51.476;7.210;2023-08-20T02:49:12;21.30;26.20
11423;DHT22;5768;51.476;7.210;2023-08-20T02:54:15;21.30;26.50
11423;DHT22;5768;51.476;7.210;2023-08-20T02:59:19;21.40;26.30
11423;DHT22;5768;51.476;7.210;2023-08-20T03:04:22;21.30;26.40
11423;DHT22;5768;51.476;7.210;2023-08-20T03:09:24;21.20;26.10
11423;DHT22;5768;51.476;7.210;2023-08-20T03:14:28;21.20;26.60
11423;DHT22;5768;51.476;7.210;2023-08-20T03:19:34;21.10;26.60
11423;DHT22;5768;51.476;7.210;2023-08-20T03:24:37;21.20;26.50
11423;DHT22;5768;51.476;7.210;2023-08-20T03:29:40;21.20;26.40
11423;DHT22;5768;51.476;7.210;2023-08-20T03:34:43;21.20;26.50
11423;DHT22;5768;51.476;7.210;2023-08-20T03:39:45;21.10;26.60
11423;DHT22;5768;51.476;7.210;2023-08-20T03:44:48;21.10;26.40
11423;DHT22;5768;51.476;7.210;2023-08-20T03:49:51;21.10;26.50
11423;DHT22;5768;51.476;7.210;2023-08-20T03:54:54;21.10;26.20
11423;DHT22;5768;51.476;7.210;2023-08-20T03:59:57;21.10;26.00
11423;DHT22;5768;51.476;7.210;2023-08-20T04:05:00;20.70;26.70
11423;DHT22;5768;51.476;7.210;2023-08-20T04:10:02;21.00;27.00
11423;DHT22;5768;51.476;7.210;2023-08-20T04:15:07;21.00;26.90
11423;DHT22;5768;51.476;7.210;2023-08-20T04:20:10;20.90;26.90
11423;DHT22;5768;51.476;7.210;2023-08-20T04:25:12;20.80;26.90
11423;DHT22;5768;51.476;7.210;2023-08-20T04:30:16;20.80;27.20
11423;DHT22;5768;51.476;7.210;2023-08-20T04:35:18;20.80;28.20
11423;DHT22;5768;51.476;7.210;2023-08-20T04:40:21;20.80;28.20
11423;DHT22;5768;51.476;7.210;2023-08-20T04:45:25;20.90;28.70
11423;DHT22;5768;51.476;7.210;2023-08-20T04:50:27;21.00;28.60
11423;DHT22;5768;51.476;7.210;2023-08-20T04:55:30;21.10;28.50
11423;DHT22;5768;51.476;7.210;2023-08-20T05:00:33;21.20;28.20
11423;DHT22;5768;51.476;7.210;2023-08-20T05:05:36;21.30;28.30
11423;DHT22;5768;51.476;7.210;2023-08-20T05:10:38;21.50;27.70
11423;DHT22;5768;51.476;7.210;2023-08-20T05:15:42;21.50;27.10
11423;DHT22;5768;51.476;7.210;2023-08-20T05:20:44;21.70;26.70
11423;DHT22;5768;51.476;7.210;2023-08-20T05:25:47;21.70;26.70
11423;DHT22;5768;51.476;7.210;2023-08-20T05:30:55;21.80;26.70
11423;DHT22;5768;51.476;7.210;2023-08-20T05:35:59;21.80;27.10
11423;DHT22;5768;51.476;7.210;2023-08-20T05:41:02;21.80;27.30
11423;DHT22;5768;51.476;7.210;2023-08-20T05:46:05;21.90;26.80
11423;DHT22;5768;51.476;7.210;2023-08-20T05:51:08;22.00;27.00
11423;DHT22;5768;51.476;7.210;2023-08-20T05:56:11;22.10;26.70
11423;DHT22;5768;51.476;7.210;2023-08-20T06:01:14;22.20;26.00
11423;DHT22;5768;51.476;7.210;2023-08-20T06:06:17;22.50;25.70
11423;DHT22;5768;51.476;7.210;2023-08-20T06:11:19;22.50;25.00
11423;DHT22;5768;51.476;7.210;2023-08-20T06:16:23;22.60;24.70
11423;DHT22;5768;51.476;7.210;2023-08-20T06:21:25;22.70;24.20
11423;DHT22;5768;51.476;7.210;2023-08-20T06:26:28;22.90;24.10
11423;DHT22;5768;51.476;7.210;2023-08-20T06:31:31;23.00;23.50
11423;DHT22;5768;51.476;7.210;2023-08-20T06:36:34;23.00;23.10
11423;DHT22;5768;51.476;7.210;2023-08-20T06:41:36;23.10;23.70
11423;DHT22;5768;51.476;7.210;2023-08-20T06:46:40;23.10;23.20
11423;DHT22;5768;51.476;7.210;2023-08-20T06:51:42;23.20;23.10
11423;DHT22;5768;51.476;7.210;2023-08-20T06:56:45;23.20;23.10
11423;DHT22;5768;51.476;7.210;2023-08-20T07:01:49;23.20;23.00
11423;DHT22;5768;51.476;7.210;2023-08-20T07:06:51;23.30;23.00
11423;DHT22;5768;51.476;7.210;2023-08-20T07:11:53;23.50;22.30
11423;DHT22;5768;51.476;7.210;2023-08-20T07:16:57;23.60;22.60
11423;DHT22;5768;51.476;7.210;2023-08-20T07:22:06;23.70;22.20
11423;DHT22;5768;51.476;7.210;2023-08-20T07:27:09;23.90;21.80
11423;DHT22;5768;51.476;7.210;2023-08-20T07:32:14;24.10;21.40
11423;DHT22;5768;51.476;7.210;2023-08-20T07:37:16;24.20;21.50
11423;DHT22;5768;51.476;7.210;2023-08-20T07:42:19;24.50;21.10
11423;DHT22;5768;51.476;7.210;2023-08-20T07:47:22;24.50;20.20
11423;DHT22;5768;51.476;7.210;2023-08-20T07:52:25;24.70;20.40
11423;DHT22;5768;51.476;7.210;2023-08-20T07:57:27;24.80;20.10
11423;DHT22;5768;51.476;7.210;2023-08-20T08:02:30;25.00;19.70
11423;DHT22;5768;51.476;7.210;2023-08-20T08:07:33;25.00;19.30
11423;DHT22;5768;51.476;7.210;2023-08-20T08:12:35;25.30;19.30
11423;DHT22;5768;51.476;7.210;2023-08-20T08:17:39;25.30;18.70
11423;DHT22;5768;51.476;7.210;2023-08-20T08:22:41;25.30;18.90
11423;DHT22;5768;51.476;7.210;2023-08-20T08:27:43;25.50;18.00
11423;DHT22;5768;51.476;7.210;2023-08-20T08:32:47;25.80;17.60
11423;DHT22;5768;51.476;7.210;2023-08-20T08:37:50;25.90;16.30
11423;DHT22;5768;51.476;7.210;2023-08-20T08:42:52;26.40;16.00
11423;DHT22;5768;51.476;7.210;2023-08-20T08:47:57;26.70;15.40
11423;DHT22;5768;51.476;7.210;2023-08-20T08:52:59;27.10;15.40
11423;DHT22;5768;51.476;7.210;2023-08-20T08:58:02;27.10;15.30
11423;DHT22;5768;51.476;7.210;2023-08-20T09:03:05;27.20;15.40
11423;DHT22;5768;51.476;7.210;2023-08-20T09:08:08;27.70;15.00
11423;DHT22;5768;51.476;7.210;2023-08-20T09:13:10;28.10;14.60
11423;DHT22;5768;51.476;7.210;2023-08-20T09:18:14;28.20;14.50
11423;DHT22;5768;51.476;7.210;2023-08-20T09:23:17;28.40;14.60
11423;DHT22;5768;51.476;7.210;2023-08-20T09:28:22;28.40;14.40
11423;DHT22;5768;51.476;7.210;2023-08-20T09:33:26;28.10;14.20
11423;DHT22;5768;51.476;7.210;2023-08-20T09:38:29;28.30;14.20
11423;DHT22;5768;51.476;7.210;2023-08-20T09:43:32;28.10;14.40
11423;DHT22;5768;51.476;7.210;2023-08-20T09:48:38;28.30;14.70
11423;DHT22;5768;51.476;7.210;2023-08-20T09:53:49;27.90;14.70
11423;DHT22;5768;51.476;7.210;2023-08-20T09:58:57;28.50;14.30
11423;DHT22;5768;51.476;7.210;2023-08-20T10:04:02;28.80;14.00
11423;DHT22;5768;51.476;7.210;2023-08-20T10:09:06;29.00;14.00
11423;DHT22;5768;51.476;7.210;2023-08-20T10:14:08;28.90;13.90
11423;DHT22;5768;51.476;7.210;2023-08-20T10:19:15;28.90;13.80
11423;DHT22;5768;51.476;7.210;2023-08-20T10:24:18;27.70;14.10
11423;DHT22;5768;51.476;7.210;2023-08-20T10:29:40;27.70;14.60
11423;DHT22;5768;51.476;7.210;2023-08-20T10:34:50;28.30;14.80
11423;DHT22;5768;51.476;7.210;2023-08-20T10:39:54;28.10;14.60
11423;DHT22;5768;51.476;7.210;2023-08-20T10:45:05;28.80;14.10
11423;DHT22;5768;51.476;7.210;2023-08-20T10:50:11;28.70;13.90
11423;DHT22;5768;51.476;7.210;2023-08-20T10:55:22;29.30;13.70
11423;DHT22;5768;51.476;7.210;2023-08-20T11:00:25;29.40;14.00
11423;DHT22;5768;51.476;7.210;2023-08-20T11:05:30;28.60;14.10
11423;DHT22;5768;51.476;7.210;2023-08-20T11:10:33;28.90;13.90
11423;DHT22;5768;51.476;7.210;2023-08-20T11:15:37;28.80;14.00
11423;DHT22;5768;51.476;7.210;2023-08-20T11:20:40;29.30;13.90
11423;DHT22;5768;51.476;7.210;2023-08-20T11:25:43;28.90;14.00
11423;DHT22;5768;51.476;7.210;2023-08-20T11:30:46;29.30;13.60
11423;DHT22;5768;51.476;7.210;2023-08-20T11:35:51;29.90;13.60
11423;DHT22;5768;51.476;7.210;2023-08-20T11:40:55;29.40;13.80
11423;DHT22;5768;51.476;7.210;2023-08-20T11:45:58;28.20;14.10
11423;DHT22;5768;51.476;7.210;2023-08-20T11:51:02;28.30;14.40
11423;DHT22;5768;51.476;7.210;2023-08-20T11:56:05;28.60;14.40
11423;DHT22;5768;51.476;7.210;2023-08-20T12:01:08;28.70;14.00
11423;DHT22;5768;51.476;7.210;2023-08-20T12:06:21;28.90;13.60
11423;DHT22;5768;51.476;7.210;2023-08-20T12:11:27;29.50;13.70
11423;DHT22;5768;51.476;7.210;2023-08-20T12:16:30;29.90;13.40
11423;DHT22;5768;51.476;7.210;2023-08-20T12:21:34;29.70;13.80
11423;DHT22;5768;51.476;7.210;2023-08-20T12:26:36;30.20;13.40
11423;DHT22;5768;51.476;7.210;2023-08-20T12:31:40;31.10;13.10
11423;DHT22;5768;51.476;7.210;2023-08-20T12:36:44;31.50;13.00
11423;DHT22;5768;51.476;7.210;2023-08-20T12:41:46;32.70;12.70
11423;DHT22;5768;51.476;7.210;2023-08-20T12:46:49;32.40;12.00
11423;DHT22;5768;51.476;7.210;2023-08-20T12:51:53;33.50;11.70
11423;DHT22;5768;51.476;7.210;2023-08-20T12:56:55;34.50;11.40
11423;DHT22;5768;51.476;7.210;2023-08-20T13:01:58;35.60;11.20
11423;DHT22;5768;51.476;7.210;2023-08-20T13:07:03;36.40;10.90
11423;DHT22;5768;51.476;7.210;2023-08-20T13:12:07;35.20;11.10
11423;DHT22;5768;51.476;7.210;2023-08-20T13:17:13;33.50;11.70
11423;DHT22;5768;51.476;7.210;2023-08-20T13:22:17;35.70;11.30
11423;DHT22;5768;51.476;7.210;2023-08-20T13:27:19;35.00;11.30
11423;DHT22;5768;51.476;7.210;2023-08-20T13:32:21;35.50;11.00
11423;DHT22;5768;51.476;7.210;2023-08-20T13:37:25;37.50;10.80
11423;DHT22;5768;51.476;7.210;2023-08-20T13:42:30;36.70;10.20
11423;DHT22;5768;51.476;7.210;2023-08-20T13:47:32;35.20;10.70
11423;DHT22;5768;51.476;7.210;2023-08-20T13:52:36;34.20;11.00
11423;DHT22;5768;51.476;7.210;2023-08-20T13:57:38;36.40;10.80
11423;DHT22;5768;51.476;7.210;2023-08-20T14:02:41;37.80;10.60
11423;DHT22;5768;51.476;7.210;2023-08-20T14:07:45;38.40;10.30
11423;DHT22;5768;51.476;7.210;2023-08-20T14:12:48;39.90;9.30
11423;DHT22;5768;51.476;7.210;2023-08-20T14:17:50;39.60;9.40
11423;DHT22;5768;51.476;7.210;2023-08-20T14:22:53;38.50;9.70
11423;DHT22;5768;51.476;7.210;2023-08-20T14:27:56;37.80;9.90
11423;DHT22;5768;51.476;7.210;2023-08-20T14:32:58;41.00;9.20
11423;DHT22;5768;51.476;7.210;2023-08-20T14:38:02;43.10;8.80
11423;DHT22;5768;51.476;7.210;2023-08-20T14:43:04;45.20;8.50
11423;DHT22;5768;51.476;7.210;2023-08-20T14:48:07;45.30;8.80
11423;DHT22;5768;51.476;7.210;2023-08-20T14:53:10;46.70;7.70
11423;DHT22;5768;51.476;7.210;2023-08-20T14:58:13;46.60;7.40
11423;DHT22;5768;51.476;7.210;2023-08-20T15:03:15;45.30;7.50
11423;DHT22;5768;51.476;7.210;2023-08-20T15:08:20;45.50;7.60
11423;DHT22;5768;51.476;7.210;2023-08-20T15:13:23;45.50;7.50
11423;DHT22;5768;51.476;7.210;2023-08-20T15:18:25;47.00;7.30
11423;DHT22;5768;51.476;7.210;2023-08-20T15:23:29;44.90;7.30
11423;DHT22;5768;51.476;7.210;2023-08-20T15:28:32;44.30;7.40
11423;DHT22;5768;51.476;7.210;2023-08-20T15:33:35;46.00;7.20
11423;DHT22;5768;51.476;7.210;2023-08-20T15:38:38;46.40;7.10
11423;DHT22;5768;51.476;7.210;2023-08-20T15:43:41;46.50;7.00
11423;DHT22;5768;51.476;7.210;2023-08-20T15:48:44;46.20;7.00
11423;DHT22;5768;51.476;7.210;2023-08-20T15:53:48;44.90;7.20
11423;DHT22;5768;51.476;7.210;2023-08-20T15:58:50;46.10;7.00
11423;DHT22;5768;51.476;7.210;2023-08-20T16:03:52;46.40;6.90
11423;DHT22;5768;51.476;7.210;2023-08-20T16:08:56;45.50;7.00
11423;DHT22;5768;51.476;7.210;2023-08-20T16:13:59;45.10;7.00
11423;DHT22;5768;51.476;7.210;2023-08-20T16:19:01;46.50;6.90
11423;DHT22;5768;51.476;7.210;2023-08-20T16:24:05;46.50;6.80
11423;DHT22;5768;51.476;7.210;2023-08-20T16:29:07;42.20;7.50
11423;DHT22;5768;51.476;7.210;2023-08-20T16:34:10;43.00;7.40
11423;DHT22;5768;51.476;7.210;2023-08-20T16:39:14;44.30;8.20
11423;DHT22;5768;51.476;7.210;2023-08-20T16:44:16;43.70;7.30
11423;DHT22;5768;51.476;7.210;2023-08-20T16:49:21;45.70;7.40
11423;DHT22;5768;51.476;7.210;2023-08-20T16:54:26;46.00;7.40
11423;DHT22;5768;51.476;7.210;2023-08-20T16:59:28;45.50;7.30
11423;DHT22;5768;51.476;7.210;2023-08-20T17:04:31;45.20;7.60
11423;DHT22;5768;51.476;7.210;2023-08-20T17:09:36;41.10;8.30
11423;DHT22;5768;51.476;7.210;2023-08-20T17:14:38;37.90;8.60
11423;DHT22;5768;51.476;7.210;2023-08-20T17:19:41;35.60;9.70
11423;DHT22;5768;51.476;7.210;2023-08-20T17:24:44;34.80;10.20
11423;DHT22;5768;51.476;7.210;2023-08-20T17:29:46;33.50;10.10
11423;DHT22;5768;51.476;7.210;2023-08-20T17:34:49;33.70;9.80
11423;DHT22;5768;51.476;7.210;2023-08-20T17:39:53;33.00;9.30
11423;DHT22;5768;51.476;7.210;2023-08-20T17:44:55;32.20;9.60
11423;DHT22;5768;51.476;7.210;2023-08-20T17:49:57;32.00;9.90
11423;DHT22;5768;51.476;7.210;2023-08-20T17:55:01;31.80;10.20
11423;DHT22;5768;51.476;7.210;2023-08-20T18:00:06;31.30;10.60
11423;DHT22;5768;51.476;7.210;2023-08-20T18:05:09;30.90;10.90
11423;DHT22;5768;51.476;7.210;2023-08-20T18:10:14;30.70;10.90
11423;DHT22;5768;51.476;7.210;2023-08-20T18:15:16;30.50;10.20
11423;DHT22;5768;51.476;7.210;2023-08-20T18:20:19;30.10;10.00
11423;DHT22;5768;51.476;7.210;2023-08-20T18:25:22;29.80;10.00
11423;DHT22;5768;51.476;7.210;2023-08-20T18:30:25;29.40;10.20
11423;DHT22;5768;51.476;7.210;2023-08-20T18:35:29;29.10;10.30
11423;DHT22;5768;51.476;7.210;2023-08-20T18:40:33;28.70;10.40
11423;DHT22;5768;51.476;7.210;2023-08-20T18:45:35;28.40;10.40
11423;DHT22;5768;51.476;7.210;2023-08-20T18:50:37;28.20;10.60
11423;DHT22;5768;51.476;7.210;2023-08-20T18:55:42;27.90;10.60
11423;DHT22;5768;51.476;7.210;2023-08-20T19:00:44;27.60;10.60
11423;DHT22;5768;51.476;7.210;2023-08-20T19:05:47;27.40;10.70
11423;DHT22;5768;51.476;7.210;2023-08-20T19:10:51;27.10;10.90
11423;DHT22;5768;51.476;7.210;2023-08-20T19:15:53;27.00;11.10
11423;DHT22;5768;51.476;7.210;2023-08-20T19:20:56;26.60;11.20
11423;DHT22;5768;51.476;7.210;2023-08-20T19:26:00;26.40;11.40
11423;DHT22;5768;51.476;7.210;2023-08-20T19:31:03;26.20;11.50
11423;DHT22;5768;51.476;7.210;2023-08-20T19:36:05;26.20;11.60
11423;DHT22;5768;51.476;7.210;2023-08-20T19:41:09;26.00;11.70
11423;DHT22;5768;51.476;7.210;2023-08-20T19:46:11;26.00;11.80
11423;DHT22;5768;51.476;7.210;2023-08-20T19:51:14;25.60;11.90
11423;DHT22;5768;51.476;7.210;2023-08-20T19:56:18;25.40;12.10
11423;DHT22;5768;51.476;7.210;2023-08-20T20:01:21;25.30;12.30
11423;DHT22;5768;51.476;7.210;2023-08-20T20:06:25;25.10;12.50
11423;DHT22;5768;51.476;7.210;2023-08-20T20:11:28;25.00;12.50
11423;DHT22;5768;51.476;7.210;2023-08-20T20:16:31;25.00;12.70
11423;DHT22;5768;51.476;7.210;2023-08-20T20:21:33;24.80;12.80
11423;DHT22;5768;51.476;7.210;2023-08-20T20:26:38;24.70;12.90
11423;DHT22;5768;51.476;7.210;2023-08-20T20:36:43;24.50;12.80
11423;DHT22;5768;51.476;7.210;2023-08-20T20:41:47;24.30;13.80
11423;DHT22;5768;51.476;7.210;2023-08-20T20:46:49;24.20;13.10
11423;DHT22;5768;51.476;7.210;2023-08-20T20:51:51;24.10;12.90
11423;DHT22;5768;51.476;7.210;2023-08-20T20:56:55;24.00;13.00
11423;DHT22;5768;51.476;7.210;2023-08-20T21:01:58;23.90;13.30
11423;DHT22;5768;51.476;7.210;2023-08-20T21:07:00;24.00;13.90
11423;DHT22;5768;51.476;7.210;2023-08-20T21:12:05;23.90;13.50
11423;DHT22;5768;51.476;7.210;2023-08-20T21:17:07;23.80;13.30
11423;DHT22;5768;51.476;7.210;2023-08-20T21:22:10;23.80;13.30
11423;DHT22;5768;51.476;7.210;2023-08-20T21:27:14;23.60;13.50
11423;DHT22;5768;51.476;7.210;2023-08-20T21:32:16;23.60;13.70
11423;DHT22;5768;51.476;7.210;2023-08-20T21:37:19;23.50;13.80
11423;DHT22;5768;51.476;7.210;2023-08-20T21:42:23;23.40;14.00
11423;DHT22;5768;51.476;7.210;2023-08-20T21:47:27;23.20;14.20
11423;DHT22;5768;51.476;7.210;2023-08-20T21:52:29;23.10;14.40
11423;DHT22;5768;51.476;7.210;2023-08-20T21:57:33;23.00;14.50
11423;DHT22;5768;51.476;7.210;2023-08-20T22:02:35;23.00;14.70
11423;DHT22;5768;51.476;7.210;2023-08-20T22:07:37;22.90;14.80
11423;DHT22;5768;51.476;7.210;2023-08-20T22:12:41;22.80;15.00
11423;DHT22;5768;51.476;7.210;2023-08-20T22:17:44;22.70;15.00
11423;DHT22;5768;51.476;7.210;2023-08-20T22:22:46;22.70;14.90
11423;DHT22;5768;51.476;7.210;2023-08-20T22:27:50;22.60;15.10
11423;DHT22;5768;51.476;7.210;2023-08-20T22:32:52;22.40;15.40
11423;DHT22;5768;51.476;7.210;2023-08-20T22:38:02;22.40;15.40
11423;DHT22;5768;51.476;7.210;2023-08-20T22:43:08;22.50;15.50
11423;DHT22;5768;51.476;7.210;2023-08-20T22:48:10;22.40;15.70
11423;DHT22;5768;51.476;7.210;2023-08-20T22:53:12;22.40;15.80
11423;DHT22;5768;51.476;7.210;2023-08-20T22:58:15;22.20;16.10
11423;DHT22;5768;51.476;7.210;2023-08-20T23:03:18;22.20;16.20
11423;DHT22;5768;51.476;7.210;2023-08-20T23:08:20;22.10;16.30
11423;DHT22;5768;51.476;7.210;2023-08-20T23:13:24;22.10;16.50
11423;DHT22;5768;51.476;7.210;2023-08-20T23:18:26;22.00;16.70
11423;DHT22;5768;51.476;7.210;2023-08-20T23:23:28;21.80;17.00
11423;DHT22;5768;51.476;7.210;2023-08-20T23:28:32;21.80;16.90
11423;DHT22;5768;51.476;7.210;2023-08-20T23:33:35;21.80;17.00
11423;DHT22;5768;51.476;7.210;2023-08-20T23:38:37;21.70;16.90
11423;DHT22;5768;51.476;7.210;2023-08-20T23:43:42;21.60;17.10
11423;DHT22;5768;51.476;7.210;2023-08-20T23:48:47;21.50;16.90
11423;DHT22;5768;51.476;7.210;2023-08-20T23:53:49;21.50;17.10
11423;DHT22;5768;51.476;7.210;2023-08-20T23:58:53;21.50;17.20
